Time;durP1;ratioP1;P1;durP2;ratioP2;P2;SDS_P1;SDS_P2;PMS_P1;PMS_P2;Temp;Humidity;BMP_temperature;BMP_pressure;BME280_temperature;BME280_humidity;BME280_pressure;Samples;Min_cycle;Max_cycle;Signal;HPM_P1;HPM_P2
2022/05/07 00:02:08;;;;;;;42.33;22.73;;;;;;;10.59;100.00;95964.69;5069218;28;20048;-75
2022/05/07 00:04:37;;;;;;;39.65;22.58;;;;;;;10.54;100.00;95965.47;5063516;28;20039;-75
2022/05/07 00:07:06;;;;;;;41.03;23.38;;;;;;;10.51;100.00;95968.59;5059024;28;20092;-75
2022/05/07 00:09:33;;;;;;;43.03;23.42;;;;;;;10.51;100.00;95967.81;5056405;28;20048;-75
2022/05/07 00:11:59;;;;;;;45.97;22.92;;;;;;;10.49;100.00;95970.69;5062855;28;20052;-75
2022/05/07 00:14:25;;;;;;;43.35;23.52;;;;;;;10.54;100.00;95973.38;5068705;28;20422;-75
2022/05/07 00:19:35;;;;;;;57.22;29.92;;;;;;;10.51;100.00;95958.06;5070974;28;20040;-75
2022/05/07 00:22:01;;;;;;;55.50;30.63;;;;;;;10.53;100.00;95955.97;5062917;28;20107;-75
2022/05/07 00:24:27;;;;;;;61.95;31.35;;;;;;;10.54;100.00;95952.31;5070242;28;20041;-75
2022/05/07 00:26:52;;;;;;;60.72;32.47;;;;;;;10.60;100.00;95954.94;5060483;28;20044;-75
2022/05/07 00:29:18;;;;;;;61.97;32.33;;;;;;;10.60;100.00;95949.69;5070730;28;20047;-75
2022/05/07 00:31:43;;;;;;;62.08;33.83;;;;;;;10.62;100.00;95952.88;5063240;28;20498;-75
2022/05/07 00:34:09;;;;;;;65.22;32.85;;;;;;;10.66;100.00;95953.91;5069559;28;20694;-75
2022/05/07 00:36:34;;;;;;;67.72;33.95;;;;;;;10.61;100.00;95948.63;5067376;28;20119;-75
2022/05/07 00:39:00;;;;;;;67.55;35.58;;;;;;;10.63;100.00;95943.91;5068986;28;20066;-75
2022/05/07 00:41:26;;;;;;;71.68;35.72;;;;;;;10.66;100.00;95951.28;5061955;28;20036;-75
2022/05/07 00:43:52;;;;;;;76.72;36.63;;;;;;;10.66;100.00;95944.19;5066818;28;20044;-75
2022/05/07 00:46:24;;;;;;;73.40;36.67;;;;;;;10.69;100.00;95940.25;5061613;28;20041;-75
2022/05/07 00:48:50;;;;;;;70.85;35.67;;;;;;;10.70;100.00;95941.81;5069027;28;20074;-75
2022/05/07 00:51:34;;;;;;;73.50;34.67;;;;;;;10.68;100.00;95936.03;5055195;28;20044;-75
2022/05/07 00:54:08;;;;;;;72.38;35.75;;;;;;;10.65;100.00;95933.91;5059783;28;20052;-75
2022/05/07 00:56:36;;;;;;;72.00;34.72;;;;;;;10.68;100.00;95939.44;5069937;28;20046;-75
2022/05/07 00:59:03;;;;;;;75.68;37.15;;;;;;;10.66;100.00;95935.47;5059623;28;20048;-75
2022/05/07 01:01:28;;;;;;;79.13;37.55;;;;;;;10.65;100.00;95926.03;5058712;28;20041;-75
2022/05/07 01:03:55;;;;;;;75.07;37.08;;;;;;;10.62;100.00;95931.81;5051713;28;20066;-75
2022/05/07 01:06:21;;;;;;;79.38;37.65;;;;;;;10.69;100.00;95937.63;5066850;28;20115;-75
2022/05/07 01:08:48;;;;;;;72.90;37.15;;;;;;;10.69;100.00;95929.72;5050113;28;20041;-75
2022/05/07 01:11:19;;;;;;;80.78;38.30;;;;;;;10.70;100.00;95933.91;5066433;28;20037;-75
2022/05/07 01:13:45;;;;;;;68.13;34.88;;;;;;;10.69;100.00;95932.34;5061301;28;20579;-75
2022/05/07 01:16:12;;;;;;;74.07;36.95;;;;;;;10.68;100.00;95925.50;5064654;28;20048;-75
2022/05/07 01:18:38;;;;;;;80.40;39.03;;;;;;;10.65;100.00;95931.28;5065769;28;20037;-76
2022/05/07 01:21:12;;;;;;;76.50;37.33;;;;;;;10.69;100.00;95927.09;5065232;28;20059;-75
2022/05/07 01:23:40;;;;;;;79.28;37.72;;;;;;;10.69;100.00;95921.81;5058017;28;20047;-75
2022/05/07 01:26:06;;;;;;;71.70;36.42;;;;;;;10.74;100.00;95921.81;5055868;28;20110;-75
2022/05/07 01:28:31;;;;;;;81.47;39.60;;;;;;;10.79;100.00;95916.56;5057171;28;20383;-75
2022/05/07 01:30:57;;;;;;;80.60;38.75;;;;;;;10.77;100.00;95913.41;5066546;28;20071;-75
2022/05/07 01:33:22;;;;;;;78.00;37.65;;;;;;;10.74;100.00;95916.56;5060071;28;20517;-76
2022/05/07 01:35:48;;;;;;;76.63;36.38;;;;;;;10.72;100.00;95916.03;5064418;28;20036;-75
2022/05/07 01:38:13;;;;;;;72.57;36.20;;;;;;;10.75;100.00;95912.88;5069604;28;20149;-75
2022/05/07 01:40:39;;;;;;;78.45;37.35;;;;;;;10.79;100.00;95916.56;5069520;28;20045;-76
2022/05/07 01:43:05;;;;;;;72.28;35.30;;;;;;;10.81;100.00;95909.19;5051789;28;20051;-74
2022/05/07 01:45:31;;;;;;;78.13;37.05;;;;;;;10.77;100.00;95908.13;5057258;28;20037;-76
2022/05/07 01:48:11;;;;;;;66.35;34.60;;;;;;;10.79;100.00;95911.31;5069101;28;20067;-75
2022/05/07 01:50:41;;;;;;;66.68;33.58;;;;;;;10.76;100.00;95917.09;5065237;28;20546;-75
2022/05/07 01:53:09;;;;;;;68.07;34.33;;;;;;;10.76;100.00;95911.84;5066720;28;20418;-75
2022/05/07 01:55:35;;;;;;;78.15;37.15;;;;;;;10.73;100.00;95912.34;5065102;28;20115;-76
2022/05/07 01:58:02;;;;;;;76.38;37.45;;;;;;;10.71;100.00;95912.59;5064638;28;20167;-76
2022/05/07 02:00:30;;;;;;;77.72;39.67;;;;;;;10.70;100.00;95910.22;5067926;28;20445;-76
2022/05/07 02:02:57;;;;;;;79.50;38.70;;;;;;;10.74;100.00;95908.66;5065975;28;20429;-75
2022/05/07 02:05:25;;;;;;;81.45;38.97;;;;;;;10.71;100.00;95909.97;5065398;28;20070;-76
2022/05/07 02:07:51;;;;;;;76.75;38.22;;;;;;;10.70;100.00;95912.84;5047959;28;20033;-75
2022/05/07 02:10:17;;;;;;;84.10;39.30;;;;;;;10.69;100.00;95906.03;5049383;28;20041;-75
2022/05/07 02:12:43;;;;;;;77.22;37.95;;;;;;;10.71;100.00;95909.19;5054682;28;20423;-75
2022/05/07 02:15:09;;;;;;;67.97;35.95;;;;;;;10.74;100.00;95908.66;5064897;28;20045;-75
2022/05/07 02:17:34;;;;;;;71.68;35.22;;;;;;;10.73;100.00;95907.06;5067898;28;20056;-75
2022/05/07 02:20:00;;;;;;;75.15;37.13;;;;;;;10.74;100.00;95913.91;5067370;28;20044;-75
2022/05/07 02:22:26;;;;;;;72.53;35.67;;;;;;;10.76;100.00;95906.56;5068486;28;20063;-75
2022/05/07 02:24:51;;;;;;;69.20;35.35;;;;;;;10.74;100.00;95911.28;5057708;28;20406;-75
2022/05/07 02:27:17;;;;;;;67.80;35.20;;;;;;;10.70;100.00;95902.31;5063244;28;20053;-75
2022/05/07 02:29:43;;;;;;;70.05;36.00;;;;;;;10.69;100.00;95906.03;5060805;28;20111;-75
2022/05/07 02:32:09;;;;;;;71.32;36.00;;;;;;;10.65;100.00;95905.75;5062408;28;20618;-75
2022/05/07 02:34:36;;;;;;;70.18;35.28;;;;;;;10.61;100.00;95904.69;5068381;28;20047;-75
2022/05/07 02:37:03;;;;;;;71.80;36.15;;;;;;;10.64;100.00;95908.63;5057945;28;20045;-74
2022/05/07 02:39:30;;;;;;;68.05;34.95;;;;;;;10.64;100.00;95900.75;5048801;28;20539;-75
2022/05/07 02:44:40;;;;;;;72.68;35.75;;;;;;;10.58;100.00;95905.97;5053144;28;20118;-75
2022/05/07 02:47:06;;;;;;;80.70;39.25;;;;;;;10.56;100.00;95908.09;5063070;28;20459;-75
2022/05/07 02:49:32;;;;;;;77.30;36.08;;;;;;;10.54;100.00;95899.69;5067395;28;20033;-74
2022/05/07 02:51:58;;;;;;;68.45;35.08;;;;;;;10.64;100.00;95903.38;5068625;28;20044;-74
2022/05/07 02:54:24;;;;;;;69.65;35.30;;;;;;;10.58;100.00;95905.97;5054807;28;20095;-74
2022/05/07 02:56:50;;;;;;;73.95;35.72;;;;;;;10.51;100.00;95902.81;5058268;28;20037;-74
2022/05/07 02:59:15;;;;;;;67.85;35.40;;;;;;;10.53;100.00;95902.53;5048855;28;20045;-74
2022/05/07 03:01:41;;;;;;;68.15;34.97;;;;;;;10.48;100.00;95900.69;5062945;28;20093;-74
2022/05/07 03:04:08;;;;;;;79.20;38.03;;;;;;;10.51;100.00;95900.19;5061866;28;20044;-74
2022/05/07 03:06:34;;;;;;;74.32;35.90;;;;;;;10.61;100.00;95894.16;5067813;28;20048;-74
2022/05/07 03:09:00;;;;;;;78.72;37.00;;;;;;;10.56;100.00;95897.56;5057302;28;20049;-74
2022/05/07 03:11:26;;;;;;;68.75;36.25;;;;;;;10.61;100.00;95903.91;5068822;28;20116;-74
2022/05/07 03:13:52;;;;;;;73.45;37.92;;;;;;;10.55;100.00;95895.97;5063555;28;20477;-75
2022/05/07 03:16:17;;;;;;;77.30;38.08;;;;;;;10.54;100.00;95899.69;5060602;28;20056;-75
2022/05/07 03:18:43;;;;;;;72.85;36.97;;;;;;;10.58;100.00;95898.09;5053988;28;20589;-75
2022/05/07 03:21:09;;;;;;;75.55;35.63;;;;;;;10.58;100.00;95898.09;5061238;28;20552;-75
2022/05/07 03:23:35;;;;;;;66.40;34.47;;;;;;;10.60;100.00;95902.31;5065926;28;20457;-75
2022/05/07 03:26:00;;;;;;;70.03;34.97;;;;;;;10.61;100.00;95896.78;5071945;28;20068;-75
2022/05/07 03:28:26;;;;;;;73.85;36.47;;;;;;;10.58;100.00;95895.44;5066463;28;20071;-75
2022/05/07 03:30:51;;;;;;;72.93;36.22;;;;;;;10.57;100.00;95893.91;5063541;28;20037;-75
2022/05/07 03:33:17;;;;;;;69.95;34.70;;;;;;;10.54;100.00;95894.41;5052157;28;20116;-75
2022/05/07 03:35:47;;;;;;;72.30;36.28;;;;;;;10.52;100.00;95896.50;5061830;28;20040;-75
2022/05/07 03:38:13;;;;;;;74.93;36.47;;;;;;;10.56;100.00;95896.78;5068061;28;20058;-75
2022/05/07 03:40:38;;;;;;;79.45;36.40;;;;;;;10.54;100.00;95897.06;5071382;28;20116;-75
2022/05/07 03:43:05;;;;;;;83.60;37.90;;;;;;;10.55;100.00;95893.34;5065471;28;20049;-75
2022/05/07 03:45:32;;;;;;;86.85;39.38;;;;;;;10.52;100.00;95899.13;5051639;28;20506;-75
2022/05/07 03:47:57;;;;;;;78.05;37.72;;;;;;;10.55;100.00;95897.81;5057115;28;20047;-75
2022/05/07 03:50:23;;;;;;;84.18;39.13;;;;;;;10.52;100.00;95891.22;5064749;28;20036;-75
2022/05/07 03:55:33;;;;;;;77.10;37.55;;;;;;;10.53;100.00;95903.34;5052054;28;20037;-75
2022/05/07 03:57:58;;;;;;;86.55;36.92;;;;;;;10.53;100.00;95903.34;5063455;28;20037;-75
2022/05/07 04:00:23;;;;;;;82.85;37.65;;;;;;;10.56;100.00;95902.84;5063452;28;20571;-75
2022/05/07 04:02:49;;;;;;;75.10;36.30;;;;;;;10.54;100.00;95897.06;5068064;28;20048;-75
2022/05/07 04:05:15;;;;;;;83.60;36.33;;;;;;;10.54;100.00;95899.69;5071412;28;20039;-75
2022/05/07 04:07:40;;;;;;;74.30;35.42;;;;;;;10.55;100.00;95901.25;5068704;28;20044;-75
2022/05/07 04:10:07;;;;;;;71.75;35.13;;;;;;;10.56;100.00;95897.56;5071222;28;20044;-75
2022/05/07 04:12:32;;;;;;;81.78;35.33;;;;;;;10.60;100.00;95899.69;5063235;28;20051;-75
2022/05/07 04:14:59;;;;;;;78.93;36.95;;;;;;;10.58;100.00;95895.44;5069619;28;20048;-75
2022/05/07 04:17:25;;;;;;;84.00;37.30;;;;;;;10.59;100.00;95906.78;5063087;28;20506;-75
2022/05/07 04:19:51;;;;;;;81.57;37.13;;;;;;;10.57;100.00;95893.91;5065259;28;20089;-75
2022/05/07 04:22:16;;;;;;;83.63;36.72;;;;;;;10.61;100.00;95898.63;5069368;28;20048;-75
2022/05/07 04:24:43;;;;;;;81.93;37.15;;;;;;;10.64;100.00;95898.13;5069704;28;20080;-75
2022/05/07 04:27:09;;;;;;;83.63;36.75;;;;;;;10.62;100.00;95902.84;5068742;28;20410;-75
2022/05/07 04:29:35;;;;;;;84.78;36.97;;;;;;;10.62;100.00;95900.22;5070438;28;20040;-75
2022/05/07 04:32:01;;;;;;;77.35;35.38;;;;;;;10.59;100.00;95896.25;5068137;28;20094;-75
2022/05/07 04:34:28;;;;;;;87.53;37.03;;;;;;;10.69;100.00;95906.03;5061803;28;20421;-75
2022/05/07 04:36:54;;;;;;;82.80;35.97;;;;;;;10.68;100.00;95909.72;5053192;28;20079;-75
2022/05/07 04:39:20;;;;;;;74.32;35.45;;;;;;;10.69;100.00;95903.41;5070785;28;20051;-75
2022/05/07 04:41:46;;;;;;;86.57;36.17;;;;;;;10.66;100.00;95911.78;5070003;28;20036;-75
2022/05/07 04:44:12;;;;;;;71.30;34.53;;;;;;;10.72;100.00;95916.03;5057499;28;20567;-75
2022/05/07 04:46:39;;;;;;;74.25;34.47;;;;;;;10.78;100.00;95916.84;5073528;28;20049;-75
2022/05/07 04:49:06;;;;;;;76.72;35.13;;;;;;;10.71;100.00;95909.19;5055980;28;20045;-75
2022/05/07 04:51:32;;;;;;;68.90;34.17;;;;;;;10.61;100.00;95903.91;5068495;28;20040;-74
2022/05/07 04:53:58;;;;;;;61.53;32.40;;;;;;;10.62;100.00;95910.75;5065287;28;20113;-74
2022/05/07 04:56:24;;;;;;;70.55;33.13;;;;;;;10.66;100.00;95911.78;5066035;28;20040;-75
2022/05/07 04:58:53;;;;;;;68.50;34.20;;;;;;;10.65;100.00;95915.50;5054009;28;20600;-75
2022/05/07 05:01:18;;;;;;;71.40;32.55;;;;;;;10.69;100.00;95911.28;5061539;28;20049;-75
2022/05/07 05:03:44;;;;;;;63.30;31.08;;;;;;;10.73;100.00;95917.59;5053692;28;20666;-75
2022/05/07 05:06:10;;;;;;;63.97;32.58;;;;;;;10.68;100.00;95914.97;5074107;28;20040;-75
2022/05/07 05:08:35;;;;;;;65.57;31.90;;;;;;;10.71;100.00;95914.44;5067967;28;20032;-75
2022/05/07 05:11:01;;;;;;;55.42;29.35;;;;;;;10.71;100.00;95919.72;5070011;28;20086;-75
2022/05/07 05:13:26;;;;;;;64.53;32.10;;;;;;;10.77;100.00;95918.66;5067729;28;20119;-75
2022/05/07 05:15:52;;;;;;;63.20;32.03;;;;;;;10.75;100.00;95926.03;5049652;28;20045;-76
2022/05/07 05:18:17;;;;;;;64.35;31.73;;;;;;;10.78;100.00;95920.25;5069675;28;20429;-76
2022/05/07 05:20:43;;;;;;;61.30;29.48;;;;;;;10.77;100.00;95926.56;5064031;28;20064;-76
2022/05/07 05:23:09;;;;;;;64.97;31.40;;;;;;;10.78;100.00;95925.53;5059039;28;20072;-76
2022/05/07 05:25:34;;;;;;;53.90;28.58;;;;;;;10.77;100.00;95926.56;5062535;28;20048;-76
2022/05/07 05:28:00;;;;;;;48.85;25.25;;;;;;;10.80;100.00;95933.94;5059003;28;20051;-76
2022/05/07 05:30:26;;;;;;;47.67;26.65;;;;;;;10.87;100.00;95938.97;5059895;28;20036;-75
2022/05/07 05:32:51;;;;;;;53.53;27.08;;;;;;;10.91;100.00;95938.19;5065955;28;20506;-74
2022/05/07 05:35:17;;;;;;;49.35;25.40;;;;;;;10.90;100.00;95933.97;5057300;28;20502;-75
2022/05/07 05:37:42;;;;;;;49.00;26.58;;;;;;;11.00;100.00;95937.66;5068541;28;20041;-75
2022/05/07 05:40:08;;;;;;;45.55;24.88;;;;;;;10.90;100.00;95939.25;5067250;28;20041;-74
2022/05/07 05:42:34;;;;;;;47.40;25.25;;;;;;;10.89;100.00;95942.16;5067475;28;20087;-76
2022/05/07 05:44:59;;;;;;;46.65;24.98;;;;;;;11.00;100.00;95942.94;5059254;28;20112;-76
2022/05/07 05:47:25;;;;;;;40.83;23.00;;;;;;;10.92;100.00;95942.41;5069438;28;20040;-75
2022/05/07 05:49:52;;;;;;;47.88;26.05;;;;;;;10.95;100.00;95935.03;5067801;28;20060;-75
2022/05/07 05:52:17;;;;;;;45.05;24.20;;;;;;;10.99;100.00;95946.63;5057408;28;20037;-75
2022/05/07 05:54:43;;;;;;;43.42;23.95;;;;;;;11.04;100.00;95938.75;5065132;28;20037;-76
2022/05/07 05:57:08;;;;;;;39.47;23.05;;;;;;;11.01;100.00;95947.16;5066720;28;20064;-76
2022/05/07 05:59:34;;;;;;;41.10;22.77;;;;;;;10.96;100.00;95952.41;5067474;28;20041;-75
2022/05/07 06:01:59;;;;;;;40.63;23.20;;;;;;;10.98;100.00;95942.41;5069581;28;20059;-75
2022/05/07 06:04:25;;;;;;;40.55;22.52;;;;;;;10.94;100.00;95941.34;5067860;28;20040;-76
2022/05/07 06:06:51;;;;;;;35.17;20.52;;;;;;;10.93;100.00;95943.19;5061602;28;20044;-77
2022/05/07 06:09:16;;;;;;;35.17;20.38;;;;;;;10.89;100.00;95948.19;5068150;28;20075;-76
2022/05/07 06:11:42;;;;;;;38.92;22.55;;;;;;;10.98;100.00;95939.78;5068751;28;20044;-76
2022/05/07 06:14:08;;;;;;;37.13;21.70;;;;;;;10.99;100.00;95943.97;5067216;28;20045;-76
2022/05/07 06:16:33;;;;;;;38.83;22.33;;;;;;;10.99;100.00;95941.34;5069403;28;20032;-76
2022/05/07 06:18:59;;;;;;;38.63;22.30;;;;;;;11.01;100.00;95950.56;5073773;28;20075;-76
2022/05/07 06:21:26;;;;;;;41.33;23.73;;;;;;;11.00;100.00;95943.72;5052381;28;20044;-75
2022/05/07 06:23:52;;;;;;;42.05;24.02;;;;;;;10.98;100.00;95950.31;5064715;28;20040;-75
2022/05/07 06:29:02;;;;;;;41.53;23.98;;;;;;;10.90;100.00;95949.78;5066324;28;20094;-74
2022/05/07 06:31:29;;;;;;;41.67;23.27;;;;;;;10.84;100.00;95945.53;5068565;28;20452;-74
2022/05/07 06:33:55;;;;;;;42.22;24.35;;;;;;;10.86;100.00;95943.44;5068598;28;20090;-75
2022/05/07 06:36:20;;;;;;;45.47;24.40;;;;;;;10.89;100.00;95948.19;5054910;28;20044;-75
2022/05/07 06:38:46;;;;;;;40.20;24.25;;;;;;;10.87;100.00;95944.22;5068886;28;20794;-75
2022/05/07 06:41:11;;;;;;;46.95;26.45;;;;;;;10.74;100.00;95953.41;5067541;28;20048;-75
2022/05/07 06:43:37;;;;;;;47.00;26.75;;;;;;;10.78;100.00;95941.31;5068891;28;20040;-76
2022/05/07 06:46:03;;;;;;;49.67;26.10;;;;;;;10.85;100.00;95947.13;5069693;28;20142;-76
2022/05/07 06:48:29;;;;;;;47.17;24.85;;;;;;;10.80;100.00;95947.09;5072813;28;20405;-76
2022/05/07 06:50:55;;;;;;;49.10;25.52;;;;;;;10.74;100.00;95951.56;5072838;28;20037;-77
2022/05/07 06:53:20;;;;;;;46.47;24.98;;;;;;;10.82;100.00;95947.66;5066845;28;20041;-79
2022/05/07 06:55:55;;;;;;;47.17;25.48;;;;;;;10.86;100.00;95953.97;5078378;28;20726;-79
2022/05/07 06:58:21;;;;;;;;;;;;;;;10.81;100.00;95948.69;5066784;28;20041;-79
2022/05/07 07:00:47;;;;;;;48.10;25.50;;;;;;;10.78;100.00;95949.22;5074841;28;19924;-79
2022/05/07 07:03:12;;;;;;;48.35;26.30;;;;;;;10.85;100.00;95957.66;5079195;28;20059;-80
2022/05/07 07:05:38;;;;;;;53.72;27.58;;;;;;;10.88;100.00;95954.50;5092917;28;20040;-79
2022/05/07 07:08:04;;;;;;;45.63;25.67;;;;;;;11.07;100.00;95954.00;5071281;28;20052;-78
2022/05/07 07:10:29;;;;;;;46.25;25.65;;;;;;;10.87;100.00;95955.53;5074438;28;20502;-77
2022/05/07 07:12:55;;;;;;;46.42;25.90;;;;;;;10.76;100.00;95953.97;5074702;28;20051;-77
2022/05/07 07:15:20;;;;;;;48.42;26.58;;;;;;;10.77;100.00;95960.78;5080248;28;20060;-77
2022/05/07 07:17:46;;;;;;;51.15;28.20;;;;;;;10.74;100.00;95951.56;5075230;28;20808;-79
2022/05/07 07:20:11;;;;;;;54.50;29.55;;;;;;;10.70;100.00;95960.25;5076945;28;20046;-76
2022/05/07 07:22:37;;;;;;;54.78;28.65;;;;;;;10.68;100.00;95954.44;5072493;28;20277;-77
2022/05/07 07:25:03;;;;;;;55.85;29.38;;;;;;;10.73;100.00;95959.72;5065155;28;20044;-76
2022/05/07 07:27:28;;;;;;;47.90;27.42;;;;;;;10.74;100.00;95956.03;5065052;28;20041;-75
2022/05/07 07:29:54;;;;;;;46.75;27.83;;;;;;;10.76;100.00;95959.22;5069991;28;20082;-74
2022/05/07 07:32:19;;;;;;;58.10;27.70;;;;;;;10.73;100.00;95964.97;5071321;28;20418;-74
2022/05/07 07:34:45;;;;;;;47.38;26.85;;;;;;;10.74;100.00;95962.09;5071483;28;20033;-74
2022/05/07 07:37:10;;;;;;;50.05;27.42;;;;;;;10.71;100.00;95956.56;5061304;28;20048;-74
2022/05/07 07:39:36;;;;;;;48.00;27.95;;;;;;;10.74;100.00;95961.31;5057632;28;20557;-75
2022/05/07 07:42:02;;;;;;;46.88;27.85;;;;;;;10.74;100.00;95958.69;5067709;28;20114;-75
2022/05/07 07:44:27;;;;;;;47.63;26.10;;;;;;;10.72;100.00;95963.41;5064004;28;20395;-74
2022/05/07 07:49:38;;;;;;;51.10;28.08;;;;;;;10.67;100.00;95958.13;5071971;28;20486;-77
2022/05/07 07:52:05;;;;;;;50.75;26.67;;;;;;;10.77;100.00;95960.78;5072056;28;20036;-77
2022/05/07 07:54:30;;;;;;;53.45;27.63;;;;;;;10.79;100.00;95974.50;5067748;28;20563;-75
2022/05/07 07:56:58;;;;;;;45.55;25.17;;;;;;;10.69;100.00;95963.94;5067973;28;20044;-76
2022/05/07 07:59:23;;;;;;;43.63;24.05;;;;;;;10.67;100.00;95971.28;5057513;28;20391;-75
2022/05/07 08:01:49;;;;;;;44.80;25.52;;;;;;;10.65;100.00;95973.41;5076328;28;20040;-74
2022/05/07 08:04:14;;;;;;;43.15;24.35;;;;;;;10.66;100.00;95969.69;5067730;28;20036;-75
2022/05/07 08:06:40;;;;;;;43.70;24.63;;;;;;;10.60;100.00;95970.75;5070986;28;20040;-76
2022/05/07 08:11:55;;;;;;;45.03;25.10;;;;;;;10.53;100.00;95977.03;5069021;28;20383;-75
2022/05/07 08:14:21;;;;;;;47.03;25.50;;;;;;;10.53;100.00;95969.13;5065964;28;20036;-75
2022/05/07 08:16:46;;;;;;;47.72;24.92;;;;;;;10.57;100.00;95978.09;5070750;28;20048;-76
2022/05/07 08:19:12;;;;;;;47.58;24.25;;;;;;;10.63;100.00;95981.56;5070444;28;20036;-76
2022/05/07 08:21:38;;;;;;;45.22;25.70;;;;;;;10.66;100.00;95974.97;5070560;28;20041;-76
2022/05/07 08:24:04;;;;;;;48.85;26.75;;;;;;;10.67;100.00;95981.81;5075069;28;20044;-76
2022/05/07 08:26:30;;;;;;;49.78;27.25;;;;;;;10.61;100.00;95977.59;5070928;28;20067;-77
2022/05/07 08:28:55;;;;;;;51.13;27.13;;;;;;;10.68;100.00;95978.16;5069078;28;20498;-77
2022/05/07 08:31:22;;;;;;;45.67;26.45;;;;;;;10.63;100.00;95980.75;5059465;28;20086;-76
2022/05/07 08:33:49;;;;;;;55.33;27.60;;;;;;;10.73;100.00;95975.50;5069490;28;20062;-75
2022/05/07 08:36:14;;;;;;;54.42;28.15;;;;;;;10.66;100.00;95980.22;5065710;28;20041;-76
2022/05/07 08:38:42;;;;;;;50.55;27.48;;;;;;;10.79;100.00;95985.03;5062819;28;20087;-76
2022/05/07 08:41:10;;;;;;;54.80;28.20;;;;;;;10.84;100.00;95982.38;5067825;28;20040;-77
2022/05/07 08:43:38;;;;;;;51.67;26.92;;;;;;;10.92;100.00;95987.16;5067635;28;20093;-76
2022/05/07 08:46:13;;;;;;;47.70;26.00;;;;;;;10.77;100.00;95984.47;5072079;28;20044;-78
2022/05/07 08:48:41;;;;;;;52.90;27.17;;;;;;;10.89;100.00;95985.06;5105197;28;20421;-76
2022/05/07 08:51:07;;;;;;;45.80;25.98;;;;;;;10.98;100.00;95989.81;5065508;28;20116;-77
2022/05/07 08:53:33;;;;;;;48.28;25.92;;;;;;;10.94;100.00;95992.16;5067919;28;20071;-75
2022/05/07 08:55:59;;;;;;;44.88;25.38;;;;;;;10.85;100.00;95989.25;5067934;28;20037;-75
2022/05/07 08:58:24;;;;;;;46.25;25.35;;;;;;;10.94;100.00;95986.13;5063582;28;20490;-77
2022/05/07 09:00:50;;;;;;;47.33;25.67;;;;;;;10.88;100.00;95994.00;5064147;28;20040;-76
2022/05/07 09:03:17;;;;;;;42.10;25.05;;;;;;;10.79;100.00;95987.66;5069195;28;20101;-76
2022/05/07 09:05:43;;;;;;;44.47;24.83;;;;;;;10.86;100.00;95998.75;5052731;28;20510;-76
2022/05/07 09:08:11;;;;;;;44.53;24.50;;;;;;;10.77;100.00;95992.38;5052879;28;20068;-77
2022/05/07 09:10:39;;;;;;;45.28;25.10;;;;;;;10.77;100.00;96000.28;5060149;28;20098;-75
2022/05/07 09:13:14;;;;;;;51.35;26.88;;;;;;;10.82;100.00;96000.31;5056963;28;20052;-77
2022/05/07 09:15:51;;;;;;;51.92;25.70;;;;;;;10.93;100.00;96001.09;5059729;28;20044;-79
2022/05/07 09:18:20;;;;;;;51.65;25.13;;;;;;;10.86;100.00;95995.28;5074041;28;20169;-77
2022/05/07 09:21:16;;;;;;;51.75;25.48;;;;;;;11.02;100.00;95998.75;5069952;28;20036;-77
2022/05/07 09:23:57;;;;;;;48.20;24.02;;;;;;;11.04;100.00;96001.94;5061450;28;20041;-77
2022/05/07 09:26:27;;;;;;;48.03;24.95;;;;;;;11.04;100.00;96001.94;5066512;28;20039;-77
2022/05/07 09:28:53;;;;;;;53.55;25.88;;;;;;;11.05;100.00;95998.28;5067822;28;20047;-76
2022/05/07 09:31:30;;;;;;;41.72;22.60;;;;;;;10.95;100.00;95998.22;5070953;28;20040;-77
2022/05/07 09:36:42;;;;;;;41.33;23.40;;;;;;;10.94;100.00;95996.66;5050886;28;20072;-77
2022/05/07 09:39:10;;;;;;;41.05;22.80;;;;;;;11.03;100.00;96000.34;5050635;28;20490;-76
2022/05/07 09:41:36;;;;;;;41.25;21.75;;;;;;;11.08;100.00;96003.00;5050464;28;20041;-77
2022/05/07 09:44:02;;;;;;;39.45;22.35;;;;;;;11.00;100.00;95995.59;5050471;28;20110;-76
2022/05/07 09:46:30;;;;;;;36.35;20.98;;;;;;;11.04;100.00;95997.47;5050606;28;20534;-77
2022/05/07 09:48:58;;;;;;;41.33;22.85;;;;;;;11.09;100.00;95994.03;5065933;28;20123;-77
2022/05/07 09:51:25;;;;;;;43.45;22.35;;;;;;;11.21;100.00;95997.22;5049754;28;20040;-76
2022/05/07 09:59:34;;;;;;;38.67;22.10;;;;;;;11.28;100.00;95986.44;5054309;28;20052;-76
2022/05/07 10:02:16;;;;;;;34.95;19.50;;;;;;;11.34;100.00;95984.63;5051631;28;20144;-77
2022/05/07 10:04:54;;;;;;;35.42;21.10;;;;;;;11.43;100.00;95990.94;5061224;28;20056;-77
2022/05/07 10:07:40;;;;;;;37.03;21.35;;;;;;;11.36;100.00;95982.50;5068466;28;20037;-76
2022/05/07 10:10:17;;;;;;;38.58;20.98;;;;;;;11.34;100.00;95984.63;5070092;28;20045;-76
2022/05/07 10:12:45;;;;;;;37.53;20.08;;;;;;;11.43;100.00;95985.66;5069711;28;20040;-77
2022/05/07 10:15:15;;;;;;;35.75;19.55;;;;;;;11.40;100.00;95983.56;5068182;28;20044;-77
2022/05/07 10:17:43;;;;;;;34.42;20.25;;;;;;;11.53;100.00;95988.31;5067227;28;20041;-77
2022/05/07 10:20:10;;;;;;;34.67;19.25;;;;;;;11.49;100.00;95981.97;5067594;28;20452;-77
2022/05/07 10:22:36;;;;;;;35.83;20.38;;;;;;;11.43;100.00;95993.56;5066443;28;20044;-77
2022/05/07 10:25:16;;;;;;;35.83;20.40;;;;;;;11.43;100.00;95977.75;5067687;28;20107;-77
2022/05/07 10:27:43;;;;;;;40.85;21.33;;;;;;;11.46;100.00;95974.59;5053049;28;20045;-76
2022/05/07 10:30:17;;;;;;;39.78;22.50;;;;;;;11.62;100.00;95972.75;5056394;28;20494;-78
2022/05/07 10:32:59;;;;;;;41.47;22.73;;;;;;;11.73;100.00;95970.91;5055608;28;20418;-76
2022/05/07 10:35:58;;;;;;;42.35;23.45;;;;;;;11.79;100.00;95973.28;5049741;28;20052;-76
2022/05/07 10:38:27;;;;;;;41.40;23.15;;;;;;;11.98;100.00;95971.97;5067372;28;20044;-76
2022/05/07 10:40:53;;;;;;;37.42;22.02;;;;;;;11.85;100.00;95968.81;5066764;28;20040;-75
2022/05/07 10:43:28;;;;;;;37.95;22.88;;;;;;;11.88;100.00;95968.28;5059110;28;20539;-75
2022/05/07 10:45:56;;;;;;;41.60;23.77;;;;;;;12.08;100.00;95966.66;5057125;28;20037;-75
2022/05/07 10:48:22;;;;;;;38.97;23.17;;;;;;;12.23;100.00;95969.28;5066077;28;20048;-76
2022/05/07 10:50:52;;;;;;;40.85;23.83;;;;;;;12.50;100.00;95970.78;5065631;28;20052;-76
2022/05/07 10:53:19;;;;;;;39.28;23.23;;;;;;;12.33;100.00;95967.69;5056588;28;20048;-76
2022/05/07 10:55:44;;;;;;;42.60;24.17;;;;;;;12.32;100.00;95966.88;5048974;28;20037;-76
2022/05/07 10:58:10;;;;;;;35.55;22.02;;;;;;;12.24;100.00;95970.88;5066187;28;20051;-77
2022/05/07 11:00:36;;;;;;;37.88;22.40;;;;;;;12.08;100.00;95962.19;5050129;28;20048;-77
2022/05/07 11:03:02;;;;;;;38.53;22.80;;;;;;;12.16;100.00;95962.72;5052748;28;20053;-76
2022/05/07 11:05:35;;;;;;;38.45;23.13;;;;;;;12.22;100.00;95967.69;5052579;28;20578;-75
2022/05/07 11:08:02;;;;;;;36.03;23.17;;;;;;;12.00;100.00;95970.66;5064046;28;20040;-76
2022/05/07 11:10:30;;;;;;;38.97;22.70;;;;;;;12.06;100.00;95963.50;5067486;28;20053;-76
2022/05/07 11:13:07;;;;;;;37.10;21.55;;;;;;;11.94;100.00;95967.22;5075432;28;20532;-76
2022/05/07 11:15:33;;;;;;;37.78;22.85;;;;;;;11.88;100.00;95965.63;5088936;28;20040;-76
2022/05/07 11:17:59;;;;;;;35.17;21.13;;;;;;;11.94;100.00;95961.94;5061826;28;20071;-75
2022/05/07 11:20:35;;;;;;;35.72;21.42;;;;;;;11.85;100.00;95962.72;5068915;28;20052;-77
2022/05/07 11:23:03;;;;;;;35.90;21.35;;;;;;;11.85;100.00;95963.53;5068986;28;20049;-77
2022/05/07 11:25:29;;;;;;;37.33;21.90;;;;;;;11.78;100.00;95963.00;5062434;28;20127;-75
2022/05/07 11:27:57;;;;;;;38.05;22.45;;;;;;;11.93;100.00;95970.91;5063754;28;20029;-76
2022/05/07 11:30:23;;;;;;;42.15;22.85;;;;;;;11.88;100.00;95965.63;5048547;28;20494;-75
2022/05/07 11:32:48;;;;;;;34.15;21.05;;;;;;;11.75;100.00;95964.31;5051387;28;20041;-76
2022/05/07 11:35:14;;;;;;;34.47;20.75;;;;;;;11.77;100.00;95966.69;5051908;28;20174;-76